Time;durP1;ratioP1;P1;durP2;ratioP2;P2;SDS_P1;SDS_P2;PMS_P1;PMS_P2;Temp;Humidity;BMP_temperature;BMP_pressure;BME280_temperature;BME280_humidity;BME280_pressure;Samples;Min_cycle;Max_cycle;Signal;HPM_P1;HPM_P2
2023/08/26 00:01:34;;;;;;;11.82;9.07;;;;;;;-145.00;79.76;72443.41;5071800;28;20404;-78
2023/08/26 00:04:00;;;;;;;13.20;9.90;;;;;;;-145.00;79.54;72439.25;5071639;28;20045;-78
2023/08/26 00:06:27;;;;;;;13.02;9.38;;;;;;;-145.00;79.66;72430.94;5070970;28;20047;-78
2023/08/26 00:08:54;;;;;;;13.88;10.20;;;;;;;-145.00;79.98;72430.94;5071922;28;20041;-77
2023/08/26 00:11:20;;;;;;;14.20;10.32;;;;;;;-145.00;79.83;72435.09;5071155;28;20048;-77
2023/08/26 00:13:47;;;;;;;16.38;11.20;;;;;;;-145.00;82.09;72478.81;5071597;28;20052;-78
2023/08/26 00:16:14;;;;;;;17.15;11.10;;;;;;;-145.00;82.74;72487.13;5070949;28;20052;-78
2023/08/26 00:18:41;;;;;;;12.07;10.27;;;;;;;-145.00;81.38;72439.25;5071264;28;20045;-77
2023/08/26 00:21:08;;;;;;;12.93;10.55;;;;;;;-145.00;80.50;72420.53;5070674;28;20046;-77
2023/08/26 00:23:34;;;;;;;16.92;11.02;;;;;;;-145.00;80.20;72426.75;5071567;28;20041;-78
2023/08/26 00:26:02;;;;;;;14.05;10.60;;;;;;;-145.00;80.39;72430.94;5071379;28;20409;-77
2023/08/26 00:28:29;;;;;;;14.32;10.90;;;;;;;-145.00;81.69;72464.22;5070884;28;20527;-77
2023/08/26 00:30:58;;;;;;;13.90;11.43;;;;;;;-145.00;80.37;72445.50;5070993;28;20055;-78
2023/08/26 00:33:26;;;;;;;13.60;10.07;;;;;;;-145.00;80.08;72435.09;5070751;28;20051;-78
2023/08/26 00:35:53;;;;;;;13.48;10.38;;;;;;;-145.00;79.97;72428.84;5071529;28;20037;-78
2023/08/26 00:38:19;;;;;;;11.90;10.40;;;;;;;-145.00;80.02;72426.75;5070842;28;20055;-78
2023/08/26 00:40:46;;;;;;;14.70;10.57;;;;;;;-145.00;79.30;72410.13;5071008;28;20036;-78
2023/08/26 00:43:12;;;;;;;12.93;10.05;;;;;;;-145.00;78.96;72397.63;5069921;28;20044;-77
2023/08/26 00:45:41;;;;;;;12.13;9.32;;;;;;;-145.00;78.78;72403.88;5070979;28;20048;-78
2023/08/26 00:48:11;;;;;;;12.77;9.27;;;;;;;-145.00;78.84;72412.19;5070557;28;20040;-78
2023/08/26 00:50:40;;;;;;;11.05;9.80;;;;;;;-145.00;79.32;72439.25;5070720;28;20151;-78
2023/08/26 00:53:07;;;;;;;11.88;9.57;;;;;;;-145.00;79.23;72430.94;5070253;28;20471;-78
2023/08/26 00:55:34;;;;;;;12.52;9.80;;;;;;;-145.00;78.13;72426.75;5069718;28;20041;-78
2023/08/26 00:58:00;;;;;;;18.25;11.20;;;;;;;-145.00;80.45;72485.06;5070446;28;20041;-78
2023/08/26 01:00:27;;;;;;;13.60;10.38;;;;;;;-145.00;80.96;72468.41;5069632;28;20044;-79
2023/08/26 01:02:54;;;;;;;12.25;9.35;;;;;;;-145.00;79.31;72428.84;5070836;28;20045;-78
2023/08/26 01:05:20;;;;;;;12.68;9.02;;;;;;;-145.00;78.83;72410.13;5070096;28;20048;-78
2023/08/26 01:07:49;;;;;;;12.98;9.65;;;;;;;-145.00;78.89;72412.19;5070819;28;20047;-77
2023/08/26 01:10:17;;;;;;;12.38;9.70;;;;;;;-145.00;78.26;72410.13;5069959;28;20049;-78
2023/08/26 01:12:56;;;;;;;11.10;9.70;;;;;;;-145.00;78.83;72422.59;5070196;28;20047;-77
2023/08/26 01:15:25;;;;;;;13.90;11.30;;;;;;;-145.00;81.42;72476.72;5069688;28;20052;-78
2023/08/26 01:17:53;;;;;;;15.90;12.32;;;;;;;-145.00;84.21;72522.53;5070374;28;20040;-78
2023/08/26 01:20:21;;;;;;;18.58;12.45;;;;;;;-145.00;84.68;72522.53;5069714;28;20049;-77
2023/08/26 01:22:52;;;;;;;15.82;11.82;;;;;;;-145.00;82.76;72503.78;5070040;28;20395;-77
2023/08/26 01:25:20;;;;;;;13.95;9.90;;;;;;;-145.00;81.17;72499.63;5069215;28;20048;-78
2023/08/26 01:27:47;;;;;;;14.07;10.88;;;;;;;-145.00;79.27;72480.88;5070233;28;20041;-78
2023/08/26 01:30:13;;;;;;;16.17;9.75;;;;;;;-145.00;78.58;72476.72;5069232;28;20706;-78
2023/08/26 01:32:44;;;;;;;13.57;9.80;;;;;;;-145.00;76.90;72460.06;5070067;28;20040;-78
2023/08/26 01:35:16;;;;;;;15.77;9.85;;;;;;;-145.00;77.15;72455.91;5069806;28;20060;-78
2023/08/26 01:37:46;;;;;;;11.80;8.25;;;;;;;-145.00;77.08;72453.81;5070051;28;20400;-78
2023/08/26 01:40:13;;;;;;;12.80;9.07;;;;;;;-145.00;77.49;72472.56;5070154;28;20055;-78
2023/08/26 01:42:43;;;;;;;9.77;8.05;;;;;;;-145.00;77.48;72472.56;5068283;28;20510;-77
2023/08/26 01:45:11;;;;;;;10.48;8.10;;;;;;;-145.00;76.23;72455.91;5065553;28;20045;-77
2023/08/26 01:47:38;;;;;;;11.50;7.93;;;;;;;-145.00;76.22;72447.59;5068698;28;20049;-77
2023/08/26 01:50:05;;;;;;;10.40;8.27;;;;;;;-145.00;76.49;72470.47;5069522;28;20051;-77
2023/08/26 01:52:32;;;;;;;11.60;7.75;;;;;;;-145.00;76.02;72462.16;5069057;28;20041;-77
2023/08/26 01:54:58;;;;;;;13.07;7.65;;;;;;;-145.00;75.04;72460.06;5069920;28;20036;-77
2023/08/26 01:57:25;;;;;;;9.77;7.47;;;;;;;-145.00;74.52;72478.81;5066918;28;20044;-77
2023/08/26 01:59:53;;;;;;;11.27;8.10;;;;;;;-145.00;75.40;72480.88;5069110;28;20065;-77
2023/08/26 02:02:19;;;;;;;12.38;8.07;;;;;;;-145.00;77.25;72480.88;5068893;28;20048;-77
2023/08/26 02:04:46;;;;;;;15.15;9.35;;;;;;;-145.00;80.59;72568.31;5070032;28;20440;-78
2023/08/26 02:07:12;;;;;;;15.23;9.43;;;;;;;-145.00;81.84;72612.03;5070674;28;20044;-77
2023/08/26 02:09:39;;;;;;;14.80;9.70;;;;;;;-145.00;82.74;72647.41;5073772;28;20051;-77
2023/08/26 02:12:06;;;;;;;12.75;8.65;;;;;;;-145.00;82.20;72651.59;5072926;28;20393;-77
2023/08/26 02:14:33;;;;;;;15.05;10.00;;;;;;;-145.00;83.89;72684.88;5074295;28;20051;-79
2023/08/26 02:17:01;;;;;;;15.13;10.07;;;;;;;-145.00;85.10;72691.13;5074587;28;20048;-77
2023/08/26 02:19:27;;;;;;;15.30;10.40;;;;;;;-145.00;86.60;72699.47;5074591;28;20699;-79
2023/08/26 02:21:54;;;;;;;16.95;11.20;;;;;;;-145.00;87.65;72693.22;5073907;28;20044;-78
2023/08/26 02:24:20;;;;;;;15.30;10.70;;;;;;;-145.00;86.81;72628.69;5072728;28;20044;-78
2023/08/26 02:26:47;;;;;;;14.63;11.13;;;;;;;-145.00;86.81;72634.94;5073628;28;20122;-78
2023/08/26 02:29:13;;;;;;;19.35;12.52;;;;;;;-145.00;87.90;72634.94;5072990;28;20388;-78
2023/08/26 02:31:40;;;;;;;17.75;11.82;;;;;;;-145.00;87.16;72589.13;5073089;28;20044;-78
2023/08/26 02:34:08;;;;;;;17.63;11.48;;;;;;;-145.00;86.42;72576.63;5073264;28;20055;-77
2023/08/26 02:36:34;;;;;;;15.30;11.20;;;;;;;-145.00;86.06;72555.81;5072452;28;20061;-78
2023/08/26 02:39:01;;;;;;;15.05;12.15;;;;;;;-145.00;85.93;72547.50;5072965;28;20049;-77
2023/08/26 02:41:27;;;;;;;16.73;11.68;;;;;;;-145.00;85.85;72549.56;5072461;28;20047;-78
2023/08/26 02:43:54;;;;;;;15.68;11.05;;;;;;;-145.00;86.05;72555.81;5072992;28;20044;-78
2023/08/26 02:46:20;;;;;;;14.50;11.27;;;;;;;-145.00;86.07;72564.16;5072695;28;20048;-78
2023/08/26 02:48:47;;;;;;;17.63;11.80;;;;;;;-145.00;85.51;72557.91;5072762;28;20679;-78
2023/08/26 02:51:15;;;;;;;16.02;12.27;;;;;;;-145.00;84.99;72553.75;5072354;28;20055;-77
2023/08/26 02:53:41;;;;;;;17.73;11.70;;;;;;;-145.00;84.89;72551.66;5072944;28;20045;-77
2023/08/26 02:56:08;;;;;;;18.88;12.43;;;;;;;-145.00;85.33;72555.81;5072071;28;20045;-78
2023/08/26 02:58:34;;;;;;;17.70;12.48;;;;;;;-145.00;86.20;72582.88;5073324;28;20491;-77
2023/08/26 03:01:01;;;;;;;16.80;12.82;;;;;;;-145.00;86.38;72568.31;5071089;28;20044;-77
2023/08/26 03:03:28;;;;;;;17.35;12.70;;;;;;;-145.00;85.62;72572.47;5071248;28;20048;-78
2023/08/26 03:05:56;;;;;;;18.50;12.80;;;;;;;-145.00;85.45;72570.41;5071277;28;20491;-77
2023/08/26 03:08:24;;;;;;;18.73;12.85;;;;;;;-145.00;85.04;72572.47;5070944;28;20519;-78
2023/08/26 03:10:56;;;;;;;16.15;11.60;;;;;;;-145.00;85.24;72576.63;5071323;28;20051;-77
2023/08/26 03:13:23;;;;;;;16.83;13.30;;;;;;;-145.00;85.70;72597.47;5070916;28;20044;-78
2023/08/26 03:15:49;;;;;;;19.45;12.85;;;;;;;-145.00;87.60;72664.06;5071438;28;20054;-78
2023/08/26 03:18:16;;;;;;;19.67;12.52;;;;;;;-145.00;88.28;72697.38;5070753;28;20040;-77
2023/08/26 03:20:42;;;;;;;18.02;12.57;;;;;;;-145.00;87.86;72695.28;5070843;28;20060;-79
2023/08/26 03:23:09;;;;;;;20.33;12.18;;;;;;;-145.00;87.51;72691.13;5071014;28;20041;-77
2023/08/26 03:25:39;;;;;;;16.98;11.88;;;;;;;-145.00;86.79;72693.22;5071206;28;20036;-77
2023/08/26 03:28:08;;;;;;;19.55;13.18;;;;;;;-145.00;87.07;72718.19;5070918;28;20045;-77
2023/08/26 03:30:35;;;;;;;19.60;13.38;;;;;;;-145.00;87.34;72718.19;5071008;28;20040;-77
2023/08/26 03:33:01;;;;;;;15.65;12.00;;;;;;;-145.00;87.96;72747.34;5071134;28;20055;-78
2023/08/26 03:35:28;;;;;;;14.38;10.23;;;;;;;-145.00;88.61;72776.47;5071187;28;20124;-79
2023/08/26 03:37:54;;;;;;;13.07;8.60;;;;;;;-145.00;87.68;72799.38;5073699;28;20132;-80
2023/08/26 03:40:22;;;;;;;12.98;6.90;;;;;;;-145.00;86.98;72805.63;5073141;28;20533;-79
2023/08/26 03:42:50;;;;;;;10.05;6.43;;;;;;;-145.00;87.05;72818.13;5071854;28;20064;-79
2023/08/26 03:45:17;;;;;;;9.77;6.63;;;;;;;-145.00;87.01;72795.22;5070884;28;20045;-78
2023/08/26 03:47:43;;;;;;;8.70;5.43;;;;;;;-145.00;86.70;72813.94;5071039;28;20048;-78
2023/08/26 03:50:11;;;;;;;10.20;5.72;;;;;;;-145.00;85.21;72807.72;5070727;28;20135;-78
2023/08/26 03:52:37;;;;;;;8.98;5.20;;;;;;;-145.00;84.65;72803.53;5069270;28;20044;-78
2023/08/26 03:55:05;;;;;;;7.22;5.05;;;;;;;-145.00;84.71;72803.53;5070440;28;20040;-77
2023/08/26 03:57:31;;;;;;;8.13;5.25;;;;;;;-145.00;84.76;72818.13;5067526;28;20040;-77
2023/08/26 03:59:59;;;;;;;9.00;5.63;;;;;;;-145.00;83.95;72807.72;5036122;28;1067282;-78
2023/08/26 04:02:26;;;;;;;5.75;4.75;;;;;;;-145.00;84.25;72811.88;5073620;28;20036;-77
2023/08/26 04:04:52;;;;;;;8.50;5.72;;;;;;;-145.00;84.72;72813.94;5065455;28;20643;-78
2023/08/26 04:07:19;;;;;;;7.78;5.70;;;;;;;-145.00;84.97;72859.75;5075792;28;20044;-78
2023/08/26 04:09:45;;;;;;;7.80;5.22;;;;;;;-145.00;85.88;72855.59;5074038;28;20048;-78
2023/08/26 04:12:12;;;;;;;8.63;5.97;;;;;;;-145.00;86.01;72834.78;5071183;28;20051;-78
2023/08/26 04:14:38;;;;;;;14.13;6.55;;;;;;;-145.00;85.33;72857.66;5071966;28;20041;-76
2023/08/26 04:17:06;;;;;;;9.57;6.15;;;;;;;-145.00;85.04;72851.44;5074018;28;20045;-78
2023/08/26 04:19:33;;;;;;;8.40;5.63;;;;;;;-145.00;84.85;72845.19;5073897;28;20056;-78
2023/08/26 04:22:00;;;;;;;9.15;6.22;;;;;;;-145.00;84.91;72847.25;5073630;28;20044;-77
2023/08/26 04:24:27;;;;;;;8.45;5.70;;;;;;;-145.00;85.13;72849.34;5073471;28;20052;-78
2023/08/26 04:26:53;;;;;;;9.57;5.57;;;;;;;-145.00;84.88;72838.94;5069452;28;20106;-77
2023/08/26 04:29:20;;;;;;;7.78;5.63;;;;;;;-145.00;84.68;72830.59;5072529;28;20040;-77
2023/08/26 04:31:47;;;;;;;7.68;5.40;;;;;;;-145.00;84.81;72824.38;5071892;28;20500;-78
2023/08/26 04:34:14;;;;;;;7.03;5.78;;;;;;;-145.00;84.48;72818.13;5064361;28;20055;-78
2023/08/26 04:36:41;;;;;;;8.23;5.47;;;;;;;-145.00;84.76;72824.38;5072802;28;20049;-77
2023/08/26 04:39:11;;;;;;;9.32;5.43;;;;;;;-145.00;85.01;72811.88;5066207;28;20051;-77
2023/08/26 04:41:37;;;;;;;8.90;5.63;;;;;;;-145.00;85.56;72834.78;5072871;28;20045;-77
2023/08/26 04:44:05;;;;;;;7.55;6.05;;;;;;;-145.00;86.63;72851.44;5072251;28;20053;-77
2023/08/26 04:46:32;;;;;;;7.13;5.50;;;;;;;-145.00;86.08;72836.84;5070919;28;20053;-77
2023/08/26 04:48:58;;;;;;;7.03;5.25;;;;;;;-145.00;85.55;72824.38;5070744;28;20053;-76
2023/08/26 04:51:26;;;;;;;7.65;5.43;;;;;;;-145.00;84.54;72803.53;5070013;28;20047;-77
2023/08/26 04:53:53;;;;;;;15.73;6.47;;;;;;;-145.00;84.00;72791.06;5062750;28;20046;-78
2023/08/26 04:56:19;;;;;;;7.78;5.80;;;;;;;-145.00;84.29;72788.97;5069872;28;20412;-78
2023/08/26 04:58:46;;;;;;;6.70;5.30;;;;;;;-145.00;84.26;72786.88;5070416;28;20407;-78
2023/08/26 05:01:12;;;;;;;6.10;5.00;;;;;;;-145.00;84.23;72780.66;5069474;28;20393;-78
2023/08/26 05:03:39;;;;;;;8.50;5.50;;;;;;;-145.00;84.33;72782.72;5070086;28;20040;-77
2023/08/26 05:06:05;;;;;;;7.63;5.47;;;;;;;-145.00;84.16;72759.81;5070127;28;20419;-78
2023/08/26 05:08:33;;;;;;;7.38;5.38;;;;;;;-145.00;84.39;72764.00;5070591;28;20048;-78
2023/08/26 05:11:00;;;;;;;9.52;6.00;;;;;;;-145.00;84.20;72755.66;5068904;28;20516;-78
2023/08/26 05:13:26;;;;;;;8.00;5.72;;;;;;;-145.00;84.68;72751.50;5069174;28;20045;-77
2023/08/26 05:15:53;;;;;;;8.00;5.93;;;;;;;-145.00;84.86;72801.47;5070127;28;20052;-76
2023/08/26 05:18:21;;;;;;;7.35;4.82;;;;;;;-145.00;85.35;72793.13;5068491;28;20048;-77
2023/08/26 05:20:47;;;;;;;9.93;6.28;;;;;;;-145.00;84.26;72766.06;5069473;28;20481;-77
2023/08/26 05:23:15;;;;;;;7.88;5.95;;;;;;;-145.00;83.58;72761.91;5068507;28;20044;-77
2023/08/26 05:25:44;;;;;;;6.80;5.43;;;;;;;-145.00;83.52;72759.81;5068476;28;20040;-77
2023/08/26 05:28:11;;;;;;;10.30;5.47;;;;;;;-145.00;85.07;72807.72;5068290;28;20611;-76
2023/08/26 05:30:38;;;;;;;6.50;5.03;;;;;;;-145.00;84.85;72772.31;5068182;28;20095;-76
2023/08/26 05:33:05;;;;;;;7.13;5.38;;;;;;;-145.00;83.99;72753.59;5067364;28;20056;-76
2023/08/26 05:35:32;;;;;;;7.03;5.35;;;;;;;-145.00;83.30;72743.19;5067394;28;20048;-77
2023/08/26 05:37:58;;;;;;;9.98;5.65;;;;;;;-145.00;83.71;72743.19;5067866;28;20048;-77
2023/08/26 05:40:28;;;;;;;5.78;4.97;;;;;;;-145.00;84.16;72749.41;5066565;28;20050;-77
2023/08/26 05:42:57;;;;;;;8.30;5.40;;;;;;;-145.00;84.12;72734.84;5067671;28;20221;-77
2023/08/26 05:45:24;;;;;;;7.60;5.82;;;;;;;-145.00;83.92;72730.69;5067312;28;20052;-77
2023/08/26 05:47:50;;;;;;;8.23;5.97;;;;;;;-145.00;83.66;72724.44;5067520;28;20497;-77
2023/08/26 05:50:18;;;;;;;9.70;5.70;;;;;;;-145.00;83.55;72718.19;5067355;28;20056;-77
2023/08/26 05:52:44;;;;;;;6.47;4.97;;;;;;;-145.00;83.86;72722.34;5067211;28;20045;-76
2023/08/26 05:55:11;;;;;;;9.27;5.47;;;;;;;-145.00;83.62;72711.94;5066890;28;20048;-76
2023/08/26 05:57:37;;;;;;;8.32;5.30;;;;;;;-145.00;83.13;72703.63;5068454;28;20037;-76
2023/08/26 06:00:07;;;;;;;7.95;5.38;;;;;;;-145.00;83.37;72699.47;5067963;28;20059;-77
2023/08/26 06:02:34;;;;;;;7.53;5.50;;;;;;;-145.00;83.78;72699.47;5068987;28;20126;-78
2023/08/26 06:05:00;;;;;;;7.55;4.95;;;;;;;-145.00;84.16;72709.88;5068084;28;20053;-77
2023/08/26 06:07:27;;;;;;;5.85;5.00;;;;;;;-145.00;83.24;72701.53;5069502;28;20508;-78
2023/08/26 06:09:53;;;;;;;7.43;5.22;;;;;;;-145.00;82.90;72691.13;5068788;28;20058;-77
2023/08/26 06:12:20;;;;;;;8.07;5.00;;;;;;;-145.00;82.54;72699.47;5068312;28;20589;-77
2023/08/26 06:14:46;;;;;;;5.57;4.20;;;;;;;-145.00;82.93;72714.03;5068184;28;20044;-77
2023/08/26 06:17:14;;;;;;;6.18;4.28;;;;;;;-145.00;82.81;72714.03;5067919;28;20060;-77
2023/08/26 06:19:41;;;;;;;7.50;4.20;;;;;;;-145.00;81.97;72711.94;5068670;28;20055;-77
2023/08/26 06:22:07;;;;;;;5.90;4.05;;;;;;;-145.00;82.00;72714.03;5067993;28;20059;-76
2023/08/26 06:24:34;;;;;;;5.63;4.65;;;;;;;-145.00;80.95;72701.53;5060069;28;20045;-78
2023/08/26 06:27:01;;;;;;;7.40;4.95;;;;;;;-145.00;79.79;72711.94;5067747;28;20052;-78
2023/08/26 06:29:28;;;;;;;7.75;4.32;;;;;;;-145.00;78.12;72705.69;5067698;28;20078;-77
2023/08/26 06:31:54;;;;;;;8.57;4.25;;;;;;;-145.00;78.56;72703.63;5068382;28;20049;-77
2023/08/26 06:34:22;;;;;;;7.00;4.32;;;;;;;-145.00;80.31;72722.34;5067481;28;20522;-77
2023/08/26 06:36:48;;;;;;;5.30;4.15;;;;;;;-145.00;80.59;72709.88;5068093;28;20049;-78
2023/08/26 06:39:15;;;;;;;5.60;3.95;;;;;;;-145.00;80.15;72718.19;5067427;28;20131;-79
2023/08/26 06:41:41;;;;;;;6.75;4.30;;;;;;;-145.00;78.90;72776.47;5067297;28;20045;-79
2023/08/26 06:44:08;;;;;;;5.68;3.58;;;;;;;-145.00;79.23;72757.75;5066624;28;20044;-78
2023/08/26 06:46:35;;;;;;;6.88;4.13;;;;;;;-145.00;82.25;72784.81;5066580;28;20102;-78
2023/08/26 06:49:02;;;;;;;5.55;3.72;;;;;;;-145.00;81.42;72772.31;5067054;28;20699;-78
2023/08/26 06:51:30;;;;;;;6.05;4.15;;;;;;;-145.00;81.01;72751.50;5067071;28;20044;-79
2023/08/26 06:53:56;;;;;;;7.15;4.00;;;;;;;-145.00;79.57;72768.16;5070972;28;20051;-77
2023/08/26 06:56:23;;;;;;;8.40;4.00;;;;;;;-145.00;80.51;72759.81;5068512;28;20495;-77
2023/08/26 06:58:50;;;;;;;6.50;3.80;;;;;;;-145.00;81.46;72788.97;5069884;28;20098;-76
2023/08/26 07:01:17;;;;;;;7.57;4.60;;;;;;;-145.00;81.55;72778.56;5069525;28;20064;-76
2023/08/26 07:03:43;;;;;;;8.20;3.92;;;;;;;-145.00;79.07;72726.53;5069882;28;20052;-76
2023/08/26 07:06:10;;;;;;;5.65;3.75;;;;;;;-145.00;78.55;72716.13;5069511;28;20055;-77
2023/08/26 07:08:38;;;;;;;5.93;3.67;;;;;;;-145.00;75.77;72689.06;5070102;28;20056;-76
2023/08/26 07:11:05;;;;;;;6.20;3.35;;;;;;;-145.00;76.82;72672.41;5069537;28;20067;-76
2023/08/26 07:13:31;;;;;;;7.55;4.07;;;;;;;-145.00;77.62;72672.41;5069655;28;20036;-74
2023/08/26 07:15:58;;;;;;;4.25;3.05;;;;;;;-145.00;75.83;72655.75;5069456;28;20059;-77
2023/08/26 07:18:24;;;;;;;6.80;3.50;;;;;;;-145.00;76.20;72689.06;5069078;28;20052;-76
2023/08/26 07:20:51;;;;;;;6.65;3.33;;;;;;;-145.00;74.99;72705.69;5069611;28;20067;-76
2023/08/26 07:23:17;;;;;;;5.18;3.35;;;;;;;-145.00;73.35;72643.25;5068570;28;20527;-78
2023/08/26 07:25:45;;;;;;;6.63;3.58;;;;;;;-145.00;71.83;72593.28;5069041;28;20051;-75
2023/08/26 07:28:12;;;;;;;7.15;3.17;;;;;;;-145.00;70.21;72591.22;5060561;28;20040;-76
2023/08/26 07:30:41;;;;;;;5.45;2.80;;;;;;;-145.00;71.36;72547.50;5068362;28;20045;-76
2023/08/26 07:33:07;;;;;;;4.93;2.80;;;;;;;-145.00;67.46;72491.28;5068474;28;20045;-74
2023/08/26 07:35:34;;;;;;;4.60;2.75;;;;;;;-145.00;69.52;72530.84;5068957;28;20071;-76
2023/08/26 07:38:00;;;;;;;5.00;2.55;;;;;;;-145.00;68.61;72530.84;5067964;28;20048;-74
2023/08/26 07:40:27;;;;;;;4.00;2.35;;;;;;;-145.00;64.16;72405.94;5067647;28;20052;-74
2023/08/26 07:42:55;;;;;;;3.33;2.40;;;;;;;-145.00;63.49;72351.84;5068322;28;20059;-75
2023/08/26 07:45:22;;;;;;;6.70;2.55;;;;;;;-145.00;62.62;72358.06;5068347;28;20063;-76
2023/08/26 07:47:49;;;;;;;3.40;2.42;;;;;;;-145.00;66.06;72385.13;5068892;28;20732;-76
2023/08/26 07:50:15;;;;;;;9.23;2.80;;;;;;;-145.00;67.04;72366.41;5068805;28;20044;-75
2023/08/26 07:52:42;;;;;;;4.35;2.03;;;;;;;-145.00;61.72;72331.00;5068916;28;20055;-76
2023/08/26 07:55:09;;;;;;;3.10;2.20;;;;;;;-145.00;59.37;72285.22;5067938;28;20045;-74
2023/08/26 07:57:36;;;;;;;4.25;2.15;;;;;;;-145.00;60.79;72372.66;5068737;28;20045;-74
2023/08/26 08:00:05;;;;;;;3.20;2.40;;;;;;;-145.00;59.71;72285.22;5068018;28;20075;-73
2023/08/26 08:02:32;;;;;;;4.20;2.28;;;;;;;-145.00;62.32;72299.78;5068400;28;20044;-77
2023/08/26 08:04:58;;;;;;;5.18;2.50;;;;;;;-145.00;61.98;72291.47;5067358;28;20053;-77
2023/08/26 08:07:25;;;;;;;3.83;2.75;;;;;;;-145.00;60.79;72297.72;5067851;28;20049;-76
2023/08/26 08:09:53;;;;;;;5.13;2.78;;;;;;;-145.00;58.70;72308.13;5068341;28;20467;-74
2023/08/26 08:12:19;;;;;;;4.85;3.00;;;;;;;-145.00;55.74;72231.09;5067969;28;20044;-74
2023/08/26 08:14:46;;;;;;;4.45;2.58;;;;;;;-145.00;57.50;72272.72;5068247;28;20049;-76
2023/08/26 08:17:14;;;;;;;4.57;2.85;;;;;;;-145.00;58.65;72285.22;5067616;28;20045;-75
2023/08/26 08:19:42;;;;;;;5.18;2.60;;;;;;;-145.00;61.19;72426.75;5068414;28;20129;-75
2023/08/26 08:22:09;;;;;;;3.85;2.50;;;;;;;-145.00;61.10;72389.28;5067866;28;20052;-75
2023/08/26 08:24:35;;;;;;;5.93;2.85;;;;;;;-145.00;62.14;72401.78;5067975;28;20049;-75
2023/08/26 08:27:02;;;;;;;6.05;2.90;;;;;;;-145.00;63.69;72424.69;5067507;28;20048;-75
2023/08/26 08:29:28;;;;;;;8.73;2.70;;;;;;;-145.00;65.40;72458.00;5068172;28;20046;-80
2023/08/26 08:31:55;;;;;;;4.82;3.38;;;;;;;-145.00;66.73;72476.72;5068733;28;20050;-78
2023/08/26 08:34:23;;;;;;;6.63;3.80;;;;;;;-145.00;65.77;72530.84;5068362;28;20044;-79
2023/08/26 08:36:49;;;;;;;5.65;3.38;;;;;;;-145.00;65.62;72510.03;5068283;28;20604;-78
2023/08/26 08:39:16;;;;;;;5.45;3.85;;;;;;;-145.00;64.73;72505.88;5068679;28;20504;-77
2023/08/26 08:41:46;;;;;;;6.72;4.13;;;;;;;-145.00;65.57;72497.53;5067067;28;20048;-77
2023/08/26 08:44:15;;;;;;;5.43;3.80;;;;;;;-145.00;66.03;72458.00;5066869;28;20074;-78
2023/08/26 08:46:41;;;;;;;6.18;3.25;;;;;;;-145.00;61.55;72405.94;5067637;28;20110;-76
2023/08/26 08:49:08;;;;;;;4.70;3.22;;;;;;;-145.00;61.74;72397.63;5067579;28;20078;-75
2023/08/26 08:51:38;;;;;;;6.22;3.72;;;;;;;-145.00;66.83;72478.81;5070589;28;20054;-77
2023/08/26 08:54:05;;;;;;;5.15;3.80;;;;;;;-145.00;65.49;72426.75;5070432;28;20052;-75
2023/08/26 08:56:33;;;;;;;5.47;4.25;;;;;;;-145.00;64.11;72439.25;5070821;28;20040;-75
2023/08/26 08:59:00;;;;;;;5.47;3.97;;;;;;;-145.00;62.83;72405.94;5070549;28;20150;-75
2023/08/26 09:01:29;;;;;;;5.32;3.35;;;;;;;-145.00;60.32;72297.72;5070424;28;20044;-76
2023/08/26 09:03:56;;;;;;;4.80;3.40;;;;;;;-145.00;60.17;72310.19;5070479;28;20044;-76
2023/08/26 09:06:22;;;;;;;6.82;4.18;;;;;;;-145.00;59.67;72316.44;5069446;28;20056;-76
2023/08/26 09:08:51;;;;;;;8.65;4.30;;;;;;;-145.00;62.81;72399.72;5070488;28;20064;-76
2023/08/26 09:11:17;;;;;;;5.15;3.47;;;;;;;-145.00;62.47;72389.28;5069608;28;20511;-76
2023/08/26 09:13:45;;;;;;;7.30;4.32;;;;;;;-145.00;62.77;72418.44;5071901;28;20041;-76
2023/08/26 09:16:11;;;;;;;5.35;3.50;;;;;;;-145.00;62.04;72368.47;5071039;28;20040;-75
2023/08/26 09:18:40;;;;;;;5.65;3.65;;;;;;;-145.00;63.87;72360.16;5071168;28;20044;-76
2023/08/26 09:21:09;;;;;;;6.13;3.58;;;;;;;-145.00;61.62;72276.91;5069690;28;20048;-76
2023/08/26 09:23:43;;;;;;;6.95;4.35;;;;;;;-145.00;61.94;72285.22;5070297;28;20380;-76
2023/08/26 09:26:12;;;;;;;5.78;3.45;;;;;;;-145.00;59.81;72283.13;5069292;28;20095;-76
2023/08/26 09:28:39;;;;;;;5.97;4.05;;;;;;;-145.00;58.12;72264.41;5070016;28;20051;-75
2023/08/26 09:31:07;;;;;;;5.13;3.58;;;;;;;-145.00;60.09;72268.56;5069309;28;20076;-75
2023/08/26 09:33:33;;;;;;;5.80;4.40;;;;;;;-145.00;61.89;72270.66;5069983;28;20044;-75
2023/08/26 09:36:00;;;;;;;7.50;5.03;;;;;;;-145.00;62.16;72368.47;5069504;28;20518;-76
2023/08/26 09:38:31;;;;;;;7.18;4.47;;;;;;;-145.00;65.14;72405.94;5069590;28;20521;-76
2023/08/26 09:40:58;;;;;;;6.43;3.85;;;;;;;-145.00;61.94;72324.78;5069461;28;20049;-76
2023/08/26 09:43:26;;;;;;;7.10;4.72;;;;;;;-145.00;60.69;72299.78;5069345;28;20568;-76
2023/08/26 09:45:56;;;;;;;7.82;4.65;;;;;;;-145.00;62.13;72326.84;5069989;28;20040;-76
2023/08/26 09:48:24;;;;;;;7.57;4.60;;;;;;;-145.00;60.42;72356.00;5069663;28;20097;-76
2023/08/26 09:50:51;;;;;;;9.75;4.78;;;;;;;-145.00;61.87;72347.66;5069936;28;20060;-76
2023/08/26 09:53:30;;;;;;;7.30;4.70;;;;;;;-145.00;60.79;72314.38;5068936;28;20056;-76
2023/08/26 09:55:58;;;;;;;9.80;5.10;;;;;;;-145.00;60.38;72297.72;5069442;28;20044;-76
2023/08/26 09:58:26;;;;;;;7.63;4.60;;;;;;;-145.00;60.15;72287.31;5069863;28;20040;-75
2023/08/26 10:00:54;;;;;;;7.43;4.63;;;;;;;-145.00;60.28;72249.84;5069656;28;20131;-75
2023/08/26 10:03:24;;;;;;;6.55;4.40;;;;;;;-145.00;59.31;72251.91;5068803;28;20044;-76
2023/08/26 10:05:52;;;;;;;6.45;4.88;;;;;;;-145.00;60.60;72314.38;5069837;28;20420;-76
2023/08/26 10:08:21;;;;;;;7.18;4.50;;;;;;;-145.00;61.57;72276.91;5068928;28;20070;-76
2023/08/26 10:10:51;;;;;;;5.90;4.78;;;;;;;-145.00;59.87;72206.13;5069891;28;20045;-76
2023/08/26 10:13:22;;;;;;;5.82;4.47;;;;;;;-145.00;54.23;72102.06;5069389;28;20044;-76
2023/08/26 10:15:52;;;;;;;7.07;4.53;;;;;;;-145.00;53.29;72010.47;5069390;28;20051;-76
2023/08/26 10:18:28;;;;;;;6.68;4.80;;;;;;;-145.00;52.02;72014.63;5069148;28;20051;-75
2023/08/26 10:20:55;;;;;;;9.00;4.53;;;;;;;-145.00;53.37;71939.72;5069711;28;20131;-75
2023/08/26 10:23:24;;;;;;;9.63;4.80;;;;;;;-145.00;52.21;71893.91;5068908;28;20537;-75
2023/08/26 10:25:51;;;;;;;5.38;4.03;;;;;;;-145.00;50.58;71833.56;5069549;28;20045;-76
2023/08/26 10:28:19;;;;;;;8.30;4.50;;;;;;;-145.00;49.45;71823.16;5069826;28;20518;-76
2023/08/26 10:30:46;;;;;;;5.35;4.10;;;;;;;-145.00;49.73;71798.19;5073575;28;20044;-76
2023/08/26 10:33:15;;;;;;;6.53;3.80;;;;;;;-145.00;49.26;71769.03;5072529;28;20048;-76
2023/08/26 10:35:42;;;;;;;5.95;3.28;;;;;;;-145.00;49.35;71750.31;5073304;28;20052;-76
2023/08/26 10:38:12;;;;;;;8.93;3.80;;;;;;;-145.00;48.41;71802.34;5072435;28;20045;-75
2023/08/26 10:40:39;;;;;;;7.65;4.15;;;;;;;-145.00;49.64;71839.81;5073128;28;20036;-76
2023/08/26 10:43:07;;;;;;;5.85;4.38;;;;;;;-145.00;49.55;71856.47;5071997;28;20058;-75
2023/08/26 10:45:33;;;;;;;6.25;4.07;;;;;;;-145.00;50.97;71868.94;5073030;28;20051;-76
2023/08/26 10:48:01;;;;;;;8.07;4.28;;;;;;;-145.00;48.84;71860.63;5073201;28;20052;-75
2023/08/26 10:50:29;;;;;;;5.13;3.53;;;;;;;-145.00;48.44;71864.78;5072734;28;20048;-76
2023/08/26 10:52:58;;;;;;;7.57;3.22;;;;;;;-145.00;48.16;71843.97;5073050;28;20044;-75
2023/08/26 10:55:26;;;;;;;5.30;3.35;;;;;;;-145.00;48.38;71800.25;5072156;28;20044;-76
2023/08/26 10:58:08;;;;;;;5.55;3.15;;;;;;;-145.00;47.59;71783.63;5072494;28;20040;-76
2023/08/26 11:00:35;;;;;;;4.93;3.28;;;;;;;-145.00;46.69;71764.88;5072705;28;20074;-76
2023/08/26 11:03:03;;;;;;;6.30;3.30;;;;;;;-145.00;46.44;71779.44;5072193;28;20037;-74
2023/08/26 11:05:31;;;;;;;5.80;3.67;;;;;;;-145.00;47.78;71806.50;5072858;28;20500;-76
2023/08/26 11:07:58;;;;;;;7.78;3.80;;;;;;;-145.00;47.26;71802.34;5072857;28;20044;-75
2023/08/26 11:10:28;;;;;;;6.55;3.40;;;;;;;-145.00;47.30;71821.06;5072239;28;20048;-76
2023/08/26 11:12:54;;;;;;;6.05;3.47;;;;;;;-145.00;47.97;71841.91;5072913;28;20041;-75